createdAt,value
2023-05-18T00:00:21.148Z,21.25
2023-05-18T00:05:26.152Z,23.33
2023-05-18T00:10:31.732Z,40.50
2023-05-18T00:15:36.844Z,17.33
2023-05-18T00:20:42.887Z,18.50
2023-05-18T00:25:47.847Z,24.33
2023-05-18T00:30:57.095Z,20.50
2023-05-18T00:36:02.626Z,29.25
2023-05-18T00:41:07.701Z,30.50
2023-05-18T00:46:13.147Z,23.00
2023-05-18T00:51:18.831Z,25.00
2023-05-18T00:56:26.400Z,23.33
2023-05-18T01:01:35.862Z,30.67
2023-05-18T01:06:44.060Z,19.00
2023-05-18T01:12:02.043Z,22.67
2023-05-18T01:17:41.041Z,17.25
2023-05-18T01:23:11.422Z,26.67
2023-05-18T01:28:20.022Z,17.00
2023-05-18T01:33:26.555Z,27.67
2023-05-18T01:38:32.071Z,21.00
2023-05-18T01:43:39.943Z,19.33
2023-05-18T01:48:50.594Z,32.25
2023-05-18T01:54:02.476Z,22.00
2023-05-18T01:59:07.933Z,24.67
2023-05-18T02:04:14.288Z,17.00
2023-05-18T02:09:19.339Z,20.00
2023-05-18T02:14:25.548Z,18.33
2023-05-18T02:19:34.593Z,16.00
2023-05-18T02:24:40.917Z,22.67
2023-05-18T02:29:45.896Z,20.00
2023-05-18T02:34:54.481Z,21.67
2023-05-18T02:39:59.467Z,7.50
2023-05-18T02:45:04.953Z,12.00
2023-05-18T02:50:10.995Z,14.50
2023-05-18T02:55:16.168Z,12.50
2023-05-18T03:00:33.303Z,15.00
2023-05-18T03:10:42.594Z,14.00
2023-05-18T03:15:48.476Z,15.67
2023-05-18T03:20:54.046Z,20.00
2023-05-18T03:25:59.438Z,13.67
2023-05-18T03:31:06.641Z,20.00
2023-05-18T03:36:14.341Z,21.25
2023-05-18T03:41:20.819Z,10.00
2023-05-18T03:46:27.303Z,8.00
2023-05-18T03:51:33.620Z,17.75
2023-05-18T03:56:39.878Z,19.25
2023-05-18T04:01:45.750Z,14.67
2023-05-18T04:06:52.995Z,14.50
2023-05-18T04:11:57.976Z,17.33
2023-05-18T04:17:07.707Z,14.25
2023-05-18T04:22:13.943Z,20.67
2023-05-18T04:27:18.937Z,17.50
2023-05-18T04:32:28.331Z,14.25
2023-05-18T04:37:34.180Z,15.67
2023-05-18T04:42:46.577Z,17.00
2023-05-18T04:47:54.939Z,5.50
2023-05-18T04:53:03.425Z,10.00
2023-05-18T04:58:09.668Z,16.00
2023-05-18T05:03:15.009Z,8.00
2023-05-18T05:08:20.045Z,7.33
2023-05-18T05:13:25.058Z,8.00
2023-05-18T05:18:30.137Z,8.00
2023-05-18T05:23:35.850Z,13.50
2023-05-18T05:28:41.971Z,9.25
2023-05-18T05:33:47.564Z,12.00
2023-05-18T05:38:52.666Z,5.50
2023-05-18T05:43:58.372Z,4.00
2023-05-18T05:49:04.683Z,13.25
2023-05-18T05:54:10.907Z,6.00
2023-05-18T05:59:16.880Z,6.00
2023-05-18T06:04:22.959Z,6.00
2023-05-18T06:09:29.836Z,6.00
2023-05-18T06:14:35.077Z,8.00
2023-05-18T06:24:45.494Z,4.50
2023-05-18T06:30:13.871Z,4.00
2023-05-18T06:35:48.116Z,6.00
2023-05-18T06:40:53.270Z,15.00
2023-05-18T06:45:58.725Z,8.00
2023-05-18T06:51:13.615Z,9.50
2023-05-18T06:56:20.055Z,8.50
2023-05-18T07:01:26.422Z,7.50
2023-05-18T07:06:35.569Z,8.00
2023-05-18T07:11:41.896Z,4.00
2023-05-18T07:16:48.556Z,6.00
2023-05-18T07:21:54.073Z,3.33
2023-05-18T07:27:00.795Z,6.67
2023-05-18T07:32:06.561Z,15.00
2023-05-18T07:37:12.156Z,6.00
2023-05-18T07:42:18.808Z,14.75
2023-05-18T07:47:29.742Z,13.33
2023-05-18T07:52:35.892Z,6.00
2023-05-18T08:02:47.465Z,14.67
2023-05-18T08:07:53.425Z,10.00
2023-05-18T08:13:02.174Z,13.33
2023-05-18T08:18:11.340Z,8.00
2023-05-18T08:23:16.553Z,12.50
2023-05-18T08:28:22.082Z,14.00
2023-05-18T08:33:30.135Z,16.00
2023-05-18T08:38:36.568Z,12.33
2023-05-18T08:43:48.237Z,12.67
2023-05-18T08:48:57.134Z,16.00
2023-05-18T08:54:10.560Z,16.75
2023-05-18T08:59:20.461Z,12.00
2023-05-18T09:04:26.719Z,6.00
2023-05-18T09:09:32.951Z,8.00
2023-05-18T09:14:38.247Z,21.00
2023-05-18T09:19:43.239Z,10.67
2023-05-18T09:24:48.722Z,16.50
2023-05-18T09:29:58.848Z,20.50
2023-05-18T09:35:11.400Z,19.00
2023-05-18T09:40:17.982Z,17.00
2023-05-18T09:45:30.194Z,12.00
2023-05-18T09:50:36.201Z,15.50
2023-05-18T09:55:50.053Z,14.75
2023-05-18T10:00:58.209Z,21.33
2023-05-18T10:06:14.737Z,10.00
2023-05-18T10:11:23.226Z,22.25
2023-05-18T10:16:28.532Z,17.25
2023-05-18T10:21:38.042Z,21.00
2023-05-18T10:26:45.995Z,18.00
2023-05-18T10:31:55.152Z,17.00
2023-05-18T10:37:06.514Z,23.00
2023-05-18T10:42:13.691Z,17.25
2023-05-18T10:47:22.233Z,17.25
2023-05-18T10:52:33.087Z,19.50
2023-05-18T11:02:45.815Z,26.33
2023-05-18T11:07:51.189Z,18.50
2023-05-18T11:12:56.381Z,27.00
2023-05-18T11:18:21.422Z,28.50
2023-05-18T11:23:26.551Z,40.00
2023-05-18T11:28:31.957Z,26.00
2023-05-18T11:33:39.634Z,24.25
2023-05-18T11:39:12.792Z,27.00
2023-05-18T11:44:20.005Z,24.75
2023-05-18T11:49:28.673Z,25.00
2023-05-18T11:54:41.596Z,27.50
2023-05-18T12:05:04.133Z,17.00
2023-05-18T12:10:15.795Z,17.00
2023-05-18T12:15:26.375Z,17.50
2023-05-18T12:20:32.366Z,13.25
2023-05-18T12:25:38.615Z,23.50
2023-05-18T12:30:45.255Z,9.33
2023-05-18T12:35:50.051Z,10.00
2023-05-18T12:40:56.917Z,6.00
2023-05-18T12:46:07.370Z,15.00
2023-05-18T12:51:20.772Z,14.50
2023-05-18T12:56:28.553Z,14.25
2023-05-18T13:01:45.332Z,12.00
2023-05-18T13:06:50.348Z,14.33
2023-05-18T13:12:07.246Z,12.50
2023-05-18T13:22:19.233Z,13.50
2023-05-18T13:27:27.178Z,13.33
2023-05-18T13:32:32.518Z,12.00
2023-05-18T13:37:37.590Z,13.25
2023-05-18T13:42:42.863Z,19.33
2023-05-18T13:47:52.113Z,12.00
2023-05-18T13:52:57.597Z,17.67
2023-05-18T13:58:02.858Z,15.67
2023-05-18T14:08:13.731Z,10.00
2023-05-18T14:13:19.830Z,15.67
2023-05-18T14:18:25.006Z,18.00
2023-05-18T14:23:31.086Z,15.67
2023-05-18T14:28:37.210Z,9.33
2023-05-18T14:33:42.530Z,14.75
2023-05-18T14:38:47.878Z,14.25
2023-05-18T14:43:55.092Z,15.25
2023-05-18T14:54:04.770Z,10.50
2023-05-18T15:04:16.127Z,25.75
2023-05-18T15:09:22.178Z,20.00
2023-05-18T15:14:27.970Z,16.50
2023-05-18T15:19:33.241Z,16.67
2023-05-18T15:24:38.572Z,14.67
2023-05-18T15:29:43.822Z,15.00
2023-05-18T15:34:52.269Z,18.25
2023-05-18T15:40:00.197Z,19.33
2023-05-18T15:45:06.416Z,21.75
2023-05-18T15:50:12.030Z,35.50
2023-05-18T15:55:16.980Z,19.00
2023-05-18T16:00:24.838Z,19.33
2023-05-18T16:05:30.018Z,21.50
2023-05-18T16:10:34.965Z,17.67
2023-05-18T16:15:40.425Z,17.33
2023-05-18T16:20:46.348Z,20.67
2023-05-18T16:25:51.644Z,26.00
2023-05-18T16:30:56.676Z,18.00
2023-05-18T16:41:07.477Z,18.00
2023-05-18T16:46:15.201Z,18.00
2023-05-18T16:51:20.526Z,18.00
2023-05-18T16:56:26.565Z,17.00
2023-05-18T17:01:32.069Z,16.25
2023-05-18T17:06:37.432Z,16.33
2023-05-18T17:11:42.368Z,17.25
2023-05-18T17:16:48.673Z,23.50
2023-05-18T17:21:53.827Z,17.00
2023-05-18T17:26:58.635Z,21.33
2023-05-18T17:32:03.835Z,21.75
2023-05-18T17:37:08.823Z,24.00
2023-05-18T17:42:13.896Z,21.00
2023-05-18T17:47:19.599Z,29.50
2023-05-18T17:52:24.671Z,31.67
2023-05-18T17:57:30.970Z,26.50
2023-05-18T18:02:35.878Z,17.00
2023-05-18T18:07:41.040Z,25.67
2023-05-18T18:12:46.116Z,20.50
2023-05-18T18:17:51.217Z,26.25
2023-05-18T18:22:56.122Z,28.00
2023-05-18T18:38:11.391Z,22.67
2023-05-18T18:43:17.985Z,18.67
2023-05-18T18:48:23.937Z,18.67
2023-05-18T18:53:29.015Z,16.50
2023-05-18T18:58:34.016Z,22.25
2023-05-18T19:03:38.922Z,20.67
2023-05-18T19:08:44.763Z,17.00
2023-05-18T19:13:49.993Z,20.00
2023-05-18T19:18:55.863Z,26.33
2023-05-18T19:24:00.981Z,21.25
2023-05-18T19:29:06.051Z,25.50
2023-05-18T19:34:10.881Z,24.33
2023-05-18T19:39:18.776Z,19.00
2023-05-18T19:44:23.874Z,22.00
2023-05-18T19:49:30.908Z,32.33
2023-05-18T19:54:38.161Z,25.50
2023-05-18T19:59:44.032Z,25.50
2023-05-18T20:04:49.759Z,20.00
2023-05-18T20:09:55.908Z,30.50
2023-05-18T20:15:00.869Z,31.33
2023-05-18T20:20:07.329Z,25.00
2023-05-18T20:25:13.286Z,26.33
2023-05-18T20:30:18.059Z,27.75
2023-05-18T20:35:23.475Z,31.33
2023-05-18T20:40:32.257Z,34.33
2023-05-18T20:45:37.948Z,28.00
2023-05-18T20:50:42.912Z,28.00
2023-05-18T20:55:49.925Z,41.67
2023-05-18T21:00:57.571Z,30.33
2023-05-18T21:06:03.654Z,31.67
2023-05-18T21:11:08.921Z,31.33
2023-05-18T21:21:21.048Z,26.67
2023-05-18T21:26:26.954Z,36.25
2023-05-18T21:31:32.869Z,30.67
2023-05-18T21:36:38.034Z,25.00
2023-05-18T21:41:44.890Z,24.75
2023-05-18T21:46:50.048Z,37.67
2023-05-18T21:56:59.701Z,26.00
2023-05-18T22:02:04.919Z,25.25
2023-05-18T22:07:11.040Z,29.50
2023-05-18T22:12:15.808Z,36.75
2023-05-18T22:27:35.019Z,31.00
2023-05-18T22:32:40.695Z,23.67
2023-05-18T22:37:45.652Z,28.00
2023-05-18T22:42:50.727Z,32.67
2023-05-18T22:47:55.779Z,36.75
2023-05-18T22:53:00.699Z,29.50
2023-05-18T22:58:05.912Z,27.67
2023-05-18T23:03:10.974Z,27.50
2023-05-18T23:08:16.702Z,21.00
2023-05-18T23:18:27.884Z,24.00
2023-05-18T23:23:34.054Z,19.00
2023-05-18T23:28:39.225Z,25.33
2023-05-18T23:33:44.555Z,34.67
2023-05-18T23:38:52.692Z,22.00
2023-05-18T23:43:58.727Z,25.25
2023-05-18T23:49:04.141Z,35.50
2023-05-18T23:54:09.352Z,25.75
2023-05-18T23:59:17.274Z,39.00
